sensor_id;sensor_type;location;lat;lon;timestamp;pressure;altitude;pressure_sealevel;temperature;humidity
13553;BME280;6847;48.830;9.116;2022-12-29T00:00:27;97492.25;;;13.73;55.45
13553;BME280;6847;48.830;9.116;2022-12-29T00:02:55;97462.19;;;13.55;55.21
13553;BME280;6847;48.830;9.116;2022-12-29T00:05:21;97482.38;;;13.77;55.06
13553;BME280;6847;48.830;9.116;2022-12-29T00:07:57;97212.56;;;11.91;55.06
13553;BME280;6847;48.830;9.116;2022-12-29T00:10:27;97483.00;;;13.74;55.11
13553;BME280;6847;48.830;9.116;2022-12-29T00:12:54;97477.84;;;13.72;55.39
13553;BME280;6847;48.830;9.116;2022-12-29T00:15:43;97465.19;;;13.67;55.45
13553;BME280;6847;48.830;9.116;2022-12-29T00:18:11;97462.78;;;13.66;55.65
13553;BME280;6847;48.830;9.116;2022-12-29T00:20:54;97408.88;;;13.32;55.59
13553;BME280;6847;48.830;9.116;2022-12-29T00:23:39;97464.19;;;13.63;55.75
13553;BME280;6847;48.830;9.116;2022-12-29T00:26:23;97452.50;;;13.63;55.09
13553;BME280;6847;48.830;9.116;2022-12-29T00:29:08;97456.03;;;13.63;55.13
13553;BME280;6847;48.830;9.116;2022-12-29T00:31:52;97441.44;;;13.59;55.33
13553;BME280;6847;48.830;9.116;2022-12-29T00:34:36;97459.16;;;13.70;55.56
13553;BME280;6847;48.830;9.116;2022-12-29T00:37:24;97357.69;;;13.12;55.25
13553;BME280;6847;48.830;9.116;2022-12-29T00:40:09;97417.06;;;13.54;55.47
13553;BME280;6847;48.830;9.116;2022-12-29T00:42:53;97451.84;;;13.80;55.18
13553;BME280;6847;48.830;9.116;2022-12-29T00:45:40;97449.59;;;13.82;55.45
13553;BME280;6847;48.830;9.116;2022-12-29T00:48:07;97435.53;;;13.80;55.21
13553;BME280;6847;48.830;9.116;2022-12-29T00:50:33;97445.16;;;13.86;55.07
13553;BME280;6847;48.830;9.116;2022-12-29T00:52:59;97418.81;;;13.73;55.32
13553;BME280;6847;48.830;9.116;2022-12-29T00:55:27;97439.13;;;13.89;55.11
13553;BME280;6847;48.830;9.116;2022-12-29T00:57:54;97436.41;;;13.89;55.07
13553;BME280;6847;48.830;9.116;2022-12-29T01:00:20;97446.97;;;13.90;54.85
13553;BME280;6847;48.830;9.116;2022-12-29T01:02:47;97402.72;;;13.62;54.93
13553;BME280;6847;48.830;9.116;2022-12-29T01:05:15;97432.66;;;13.85;55.21
13553;BME280;6847;48.830;9.116;2022-12-29T01:07:43;97457.41;;;13.97;54.78
13553;BME280;6847;48.830;9.116;2022-12-29T01:10:14;97456.16;;;14.03;54.95
13553;BME280;6847;48.830;9.116;2022-12-29T01:12:41;97446.28;;;14.07;54.83
13553;BME280;6847;48.830;9.116;2022-12-29T01:15:12;97425.69;;;13.92;54.96
13553;BME280;6847;48.830;9.116;2022-12-29T01:17:44;97466.19;;;14.16;54.75
13553;BME280;6847;48.830;9.116;2022-12-29T01:20:12;97462.53;;;14.21;54.67
13553;BME280;6847;48.830;9.116;2022-12-29T01:22:39;97461.59;;;14.25;54.72
13553;BME280;6847;48.830;9.116;2022-12-29T01:25:08;97454.09;;;14.31;54.60
13553;BME280;6847;48.830;9.116;2022-12-29T01:27:34;97457.00;;;14.34;54.82
13553;BME280;6847;48.830;9.116;2022-12-29T01:30:03;97473.53;;;14.38;54.63
13553;BME280;6847;48.830;9.116;2022-12-29T01:32:31;97461.22;;;14.40;54.71
13553;BME280;6847;48.830;9.116;2022-12-29T01:34:57;97466.06;;;14.43;54.60
13553;BME280;6847;48.830;9.116;2022-12-29T01:37:24;97388.25;;;13.98;54.63
13553;BME280;6847;48.830;9.116;2022-12-29T01:39:51;97453.44;;;14.48;54.58
13553;BME280;6847;48.830;9.116;2022-12-29T01:42:19;97459.03;;;14.51;54.66
13553;BME280;6847;48.830;9.116;2022-12-29T01:44:53;97454.91;;;14.54;54.68
13553;BME280;6847;48.830;9.116;2022-12-29T01:47:28;97379.47;;;14.01;54.55
13553;BME280;6847;48.830;9.116;2022-12-29T01:49:58;97135.53;;;12.50;54.68
13553;BME280;6847;48.830;9.116;2022-12-29T01:52:27;97452.50;;;14.61;54.66
13553;BME280;6847;48.830;9.116;2022-12-29T01:54:58;97456.22;;;14.65;54.55
13553;BME280;6847;48.830;9.116;2022-12-29T01:57:30;97444.03;;;14.62;54.53
13553;BME280;6847;48.830;9.116;2022-12-29T02:00:00;97451.78;;;14.69;54.53
13553;BME280;6847;48.830;9.116;2022-12-29T02:02:30;97452.75;;;14.73;54.54
13553;BME280;6847;48.830;9.116;2022-12-29T02:04:58;97444.25;;;14.74;54.60
13553;BME280;6847;48.830;9.116;2022-12-29T02:07:28;97424.53;;;14.69;54.52
13553;BME280;6847;48.830;9.116;2022-12-29T02:09:55;97432.06;;;14.72;54.55
13553;BME280;6847;48.830;9.116;2022-12-29T02:12:26;97438.50;;;14.76;54.58
13553;BME280;6847;48.830;9.116;2022-12-29T02:14:58;97435.78;;;14.76;54.64
13553;BME280;6847;48.830;9.116;2022-12-29T02:17:38;97429.19;;;14.77;54.61
13553;BME280;6847;48.830;9.116;2022-12-29T02:23:49;97424.22;;;14.79;54.44
13553;BME280;6847;48.830;9.116;2022-12-29T02:26:34;97433.53;;;14.78;54.62
13553;BME280;6847;48.830;9.116;2022-12-29T02:29:24;97427.28;;;14.77;54.46
13553;BME280;6847;48.830;9.116;2022-12-29T02:32:03;97436.25;;;14.78;54.38
13553;BME280;6847;48.830;9.116;2022-12-29T02:34:42;97430.94;;;14.73;54.40
13553;BME280;6847;48.830;9.116;2022-12-29T02:37:17;97386.19;;;14.57;54.25
13553;BME280;6847;48.830;9.116;2022-12-29T02:39:50;97430.34;;;14.85;54.44
13553;BME280;6847;48.830;9.116;2022-12-29T02:42:44;97418.00;;;14.87;54.27
13553;BME280;6847;48.830;9.116;2022-12-29T02:45:20;97422.34;;;14.88;54.25
13553;BME280;6847;48.830;9.116;2022-12-29T02:47:56;97414.63;;;14.90;54.37
13553;BME280;6847;48.830;9.116;2022-12-29T02:50:28;97412.41;;;14.92;54.13
13553;BME280;6847;48.830;9.116;2022-12-29T02:52:58;97413.38;;;14.96;53.94
13553;BME280;6847;48.830;9.116;2022-12-29T02:55:26;97402.13;;;14.89;53.54
13553;BME280;6847;48.830;9.116;2022-12-29T02:58:12;97415.31;;;15.04;53.88
13553;BME280;6847;48.830;9.116;2022-12-29T03:00:48;97418.53;;;15.06;53.92
13553;BME280;6847;48.830;9.116;2022-12-29T03:03:28;97419.00;;;15.08;53.93
13553;BME280;6847;48.830;9.116;2022-12-29T03:06:09;97383.22;;;14.93;54.00
13553;BME280;6847;48.830;9.116;2022-12-29T03:08:44;97414.84;;;15.11;53.88
13553;BME280;6847;48.830;9.116;2022-12-29T03:11:14;97414.03;;;15.10;53.73
13553;BME280;6847;48.830;9.116;2022-12-29T03:13:59;97415.66;;;15.11;53.83
13553;BME280;6847;48.830;9.116;2022-12-29T03:16:48;97415.34;;;15.13;53.54
13553;BME280;6847;48.830;9.116;2022-12-29T03:19:23;97404.28;;;15.18;53.77
13553;BME280;6847;48.830;9.116;2022-12-29T03:21:57;97310.22;;;14.64;53.84
13553;BME280;6847;48.830;9.116;2022-12-29T03:24:48;97405.72;;;15.15;53.79
13553;BME280;6847;48.830;9.116;2022-12-29T03:27:19;97408.28;;;15.21;53.73
13553;BME280;6847;48.830;9.116;2022-12-29T03:29:50;97395.78;;;15.19;53.87
13553;BME280;6847;48.830;9.116;2022-12-29T03:32:22;97394.16;;;15.18;53.92
13553;BME280;6847;48.830;9.116;2022-12-29T03:34:55;97395.31;;;15.17;53.63
13553;BME280;6847;48.830;9.116;2022-12-29T03:37:24;97333.97;;;14.80;53.90
13553;BME280;6847;48.830;9.116;2022-12-29T03:39:54;97389.38;;;15.15;53.61
13553;BME280;6847;48.830;9.116;2022-12-29T03:42:24;97379.09;;;15.12;53.72
13553;BME280;6847;48.830;9.116;2022-12-29T03:44:56;97353.75;;;15.03;53.63
13553;BME280;6847;48.830;9.116;2022-12-29T03:47:23;97365.94;;;15.14;53.57
13553;BME280;6847;48.830;9.116;2022-12-29T03:49:53;97356.31;;;15.08;53.51
13553;BME280;6847;48.830;9.116;2022-12-29T03:52:22;97368.19;;;15.12;53.58
13553;BME280;6847;48.830;9.116;2022-12-29T03:54:50;97370.41;;;15.10;53.53
13553;BME280;6847;48.830;9.116;2022-12-29T03:57:17;97381.97;;;15.07;53.56
13553;BME280;6847;48.830;9.116;2022-12-29T03:59:43;97381.00;;;15.03;53.54
13553;BME280;6847;48.830;9.116;2022-12-29T04:02:11;97376.84;;;14.97;53.73
13553;BME280;6847;48.830;9.116;2022-12-29T04:04:39;97363.81;;;14.86;53.64
13553;BME280;6847;48.830;9.116;2022-12-29T04:07:12;97376.97;;;14.92;53.68
13553;BME280;6847;48.830;9.116;2022-12-29T04:09:40;97369.75;;;14.88;53.70
13553;BME280;6847;48.830;9.116;2022-12-29T04:12:06;97369.59;;;14.84;53.60
13553;BME280;6847;48.830;9.116;2022-12-29T04:14:33;97376.78;;;14.80;53.67
13553;BME280;6847;48.830;9.116;2022-12-29T04:16:59;97396.50;;;14.77;53.72
13553;BME280;6847;48.830;9.116;2022-12-29T04:19:26;97390.56;;;14.75;53.77
13553;BME280;6847;48.830;9.116;2022-12-29T04:21:54;97400.34;;;14.76;53.79
13553;BME280;6847;48.830;9.116;2022-12-29T04:24:22;97354.88;;;14.46;53.49
13553;BME280;6847;48.830;9.116;2022-12-29T04:26:49;97403.22;;;14.79;53.70
13553;BME280;6847;48.830;9.116;2022-12-29T04:29:16;97400.19;;;14.81;53.72
13553;BME280;6847;48.830;9.116;2022-12-29T04:31:43;97402.41;;;14.79;53.69
13553;BME280;6847;48.830;9.116;2022-12-29T04:34:09;97396.97;;;14.79;53.83
13553;BME280;6847;48.830;9.116;2022-12-29T04:36:38;97383.69;;;14.77;53.54
13553;BME280;6847;48.830;9.116;2022-12-29T04:39:07;97378.38;;;14.72;53.58
13553;BME280;6847;48.830;9.116;2022-12-29T04:41:35;97344.00;;;14.46;53.87
13553;BME280;6847;48.830;9.116;2022-12-29T04:44:02;97391.31;;;14.58;53.89
13553;BME280;6847;48.830;9.116;2022-12-29T04:46:30;97336.47;;;14.20;53.90
13553;BME280;6847;48.830;9.116;2022-12-29T04:48:57;97380.69;;;14.48;53.87
13553;BME280;6847;48.830;9.116;2022-12-29T04:51:25;97385.97;;;14.44;53.91
13553;BME280;6847;48.830;9.116;2022-12-29T04:53:53;97389.00;;;14.43;54.04
13553;BME280;6847;48.830;9.116;2022-12-29T04:56:19;97385.78;;;14.41;54.14
13553;BME280;6847;48.830;9.116;2022-12-29T04:58:47;97398.09;;;14.38;54.04
13553;BME280;6847;48.830;9.116;2022-12-29T05:01:16;97394.88;;;14.36;54.15
13553;BME280;6847;48.830;9.116;2022-12-29T05:03:43;97386.22;;;14.34;53.81
13553;BME280;6847;48.830;9.116;2022-12-29T05:06:09;97377.53;;;14.32;54.12
13553;BME280;6847;48.830;9.116;2022-12-29T05:08:36;97343.00;;;14.11;54.02
13553;BME280;6847;48.830;9.116;2022-12-29T05:11:03;97378.97;;;14.30;54.22
13553;BME280;6847;48.830;9.116;2022-12-29T05:13:30;97365.34;;;14.30;54.05
13553;BME280;6847;48.830;9.116;2022-12-29T05:16:01;97370.50;;;14.31;54.05
13553;BME280;6847;48.830;9.116;2022-12-29T05:18:28;97362.00;;;14.33;53.97
13553;BME280;6847;48.830;9.116;2022-12-29T05:20:57;97349.06;;;14.38;53.96
13553;BME280;6847;48.830;9.116;2022-12-29T05:23:24;97350.81;;;14.34;53.89
13553;BME280;6847;48.830;9.116;2022-12-29T05:25:51;97354.09;;;14.45;53.68
13553;BME280;6847;48.830;9.116;2022-12-29T05:28:18;97356.66;;;14.50;53.84
13553;BME280;6847;48.830;9.116;2022-12-29T05:30:47;97352.28;;;14.40;53.67
13553;BME280;6847;48.830;9.116;2022-12-29T05:33:18;97372.56;;;14.57;53.70
13553;BME280;6847;48.830;9.116;2022-12-29T05:35:45;97378.97;;;14.61;53.66
13553;BME280;6847;48.830;9.116;2022-12-29T05:38:11;97373.88;;;14.68;53.63
13553;BME280;6847;48.830;9.116;2022-12-29T05:40:38;97391.19;;;14.72;53.71
13553;BME280;6847;48.830;9.116;2022-12-29T05:43:05;97379.66;;;14.75;53.74
13553;BME280;6847;48.830;9.116;2022-12-29T05:45:32;97365.88;;;14.80;53.59
13553;BME280;6847;48.830;9.116;2022-12-29T05:47:58;97374.41;;;14.87;53.52
13553;BME280;6847;48.830;9.116;2022-12-29T05:50:26;97382.09;;;14.94;53.41
13553;BME280;6847;48.830;9.116;2022-12-29T05:52:55;97387.56;;;15.02;53.31
13553;BME280;6847;48.830;9.116;2022-12-29T05:55:24;97383.56;;;15.08;53.30
13553;BME280;6847;48.830;9.116;2022-12-29T05:57:51;97360.81;;;15.13;53.14
13553;BME280;6847;48.830;9.116;2022-12-29T06:00:18;97345.88;;;15.02;53.21
13553;BME280;6847;48.830;9.116;2022-12-29T06:02:46;97372.03;;;15.20;53.24
13553;BME280;6847;48.830;9.116;2022-12-29T06:05:12;97344.44;;;15.22;52.96
13553;BME280;6847;48.830;9.116;2022-12-29T06:07:40;97343.50;;;15.17;53.26
13553;BME280;6847;48.830;9.116;2022-12-29T06:10:07;97333.84;;;15.11;53.34
13553;BME280;6847;48.830;9.116;2022-12-29T06:12:34;97305.63;;;14.90;53.35
13553;BME280;6847;48.830;9.116;2022-12-29T06:15:04;97337.88;;;14.97;53.42
13553;BME280;6847;48.830;9.116;2022-12-29T06:17:32;97342.97;;;14.90;53.53
13553;BME280;6847;48.830;9.116;2022-12-29T06:20:01;97357.25;;;14.87;53.50
13553;BME280;6847;48.830;9.116;2022-12-29T06:22:28;97353.72;;;14.86;53.52
13553;BME280;6847;48.830;9.116;2022-12-29T06:24:56;97291.75;;;14.43;53.54
13553;BME280;6847;48.830;9.116;2022-12-29T06:27:24;97359.00;;;14.82;53.61
13553;BME280;6847;48.830;9.116;2022-12-29T06:29:53;97348.06;;;14.74;53.67
13553;BME280;6847;48.830;9.116;2022-12-29T06:32:20;97354.16;;;14.79;53.59
13553;BME280;6847;48.830;9.116;2022-12-29T06:34:46;97348.56;;;14.76;53.43
13553;BME280;6847;48.830;9.116;2022-12-29T06:37:13;97340.53;;;14.71;53.51
13553;BME280;6847;48.830;9.116;2022-12-29T06:39:39;97339.09;;;14.65;53.70
13553;BME280;6847;48.830;9.116;2022-12-29T06:42:12;97330.91;;;14.56;53.73
13553;BME280;6847;48.830;9.116;2022-12-29T06:44:41;97343.56;;;14.69;53.84
13553;BME280;6847;48.830;9.116;2022-12-29T06:47:08;97353.34;;;14.70;53.60
13553;BME280;6847;48.830;9.116;2022-12-29T06:49:34;97324.78;;;14.59;53.63
13553;BME280;6847;48.830;9.116;2022-12-29T06:52:01;97339.72;;;14.62;53.72
13553;BME280;6847;48.830;9.116;2022-12-29T06:54:35;97328.59;;;14.50;53.74
13553;BME280;6847;48.830;9.116;2022-12-29T06:57:02;97350.63;;;14.70;53.75
13553;BME280;6847;48.830;9.116;2022-12-29T06:59:30;97345.16;;;14.70;53.48
13553;BME280;6847;48.830;9.116;2022-12-29T07:01:59;97351.44;;;14.71;53.56
13553;BME280;6847;48.830;9.116;2022-12-29T07:04:27;97348.69;;;14.71;53.67
13553;BME280;6847;48.830;9.116;2022-12-29T07:06:55;97344.03;;;14.63;53.76
13553;BME280;6847;48.830;9.116;2022-12-29T07:09:22;97355.44;;;14.73;53.55
13553;BME280;6847;48.830;9.116;2022-12-29T07:11:49;97367.16;;;14.74;53.55
13553;BME280;6847;48.830;9.116;2022-12-29T07:14:16;97346.78;;;14.71;53.73
13553;BME280;6847;48.830;9.116;2022-12-29T07:16:44;97346.63;;;14.68;53.76
13553;BME280;6847;48.830;9.116;2022-12-29T07:19:10;97359.75;;;14.66;53.83
13553;BME280;6847;48.830;9.116;2022-12-29T07:21:37;97360.06;;;14.64;53.78
13553;BME280;6847;48.830;9.116;2022-12-29T07:24:05;97362.00;;;14.64;53.68
13553;BME280;6847;48.830;9.116;2022-12-29T07:26:32;97343.72;;;14.56;53.63
13553;BME280;6847;48.830;9.116;2022-12-29T07:29:00;97361.88;;;14.69;53.67
13553;BME280;6847;48.830;9.116;2022-12-29T07:31:26;97361.88;;;14.69;53.64
13553;BME280;6847;48.830;9.116;2022-12-29T07:33:56;97368.09;;;14.69;53.47
13553;BME280;6847;48.830;9.116;2022-12-29T07:36:23;97367.78;;;14.71;53.45
13553;BME280;6847;48.830;9.116;2022-12-29T07:38:50;97272.41;;;14.14;53.54
13553;BME280;6847;48.830;9.116;2022-12-29T07:41:16;97328.13;;;14.39;53.35
13553;BME280;6847;48.830;9.116;2022-12-29T07:43:46;97268.25;;;14.08;53.80
13553;BME280;6847;48.830;9.116;2022-12-29T07:46:18;97362.00;;;14.64;53.53
13553;BME280;6847;48.830;9.116;2022-12-29T07:48:47;97362.63;;;14.61;53.65
13553;BME280;6847;48.830;9.116;2022-12-29T07:51:16;97367.59;;;14.59;53.61
13553;BME280;6847;48.830;9.116;2022-12-29T07:53:43;97371.75;;;14.56;53.69
13553;BME280;6847;48.830;9.116;2022-12-29T07:56:10;97367.09;;;14.57;53.37
13553;BME280;6847;48.830;9.116;2022-12-29T07:58:41;97364.69;;;14.55;53.32
13553;BME280;6847;48.830;9.116;2022-12-29T08:01:12;97369.53;;;14.58;53.72
13553;BME280;6847;48.830;9.116;2022-12-29T08:03:39;97367.25;;;14.60;53.50
13553;BME280;6847;48.830;9.116;2022-12-29T08:06:08;97376.72;;;14.63;53.33
13553;BME280;6847;48.830;9.116;2022-12-29T08:08:39;97389.13;;;14.69;53.43
13553;BME280;6847;48.830;9.116;2022-12-29T08:11:07;97389.56;;;14.71;53.46
13553;BME280;6847;48.830;9.116;2022-12-29T08:13:34;97380.25;;;14.63;53.28
13553;BME280;6847;48.830;9.116;2022-12-29T08:16:03;97365.50;;;14.56;53.46
13553;BME280;6847;48.830;9.116;2022-12-29T08:18:34;97402.28;;;14.84;53.24
13553;BME280;6847;48.830;9.116;2022-12-29T08:21:05;97409.84;;;14.87;53.10
13553;BME280;6847;48.830;9.116;2022-12-29T08:23:35;97404.38;;;14.87;53.11
13553;BME280;6847;48.830;9.116;2022-12-29T08:26:21;97397.47;;;14.90;53.14
13553;BME280;6847;48.830;9.116;2022-12-29T08:28:48;97401.00;;;14.90;53.22
13553;BME280;6847;48.830;9.116;2022-12-29T08:31:15;97382.91;;;14.94;53.19
13553;BME280;6847;48.830;9.116;2022-12-29T08:33:41;97317.72;;;14.50;53.08
13553;BME280;6847;48.830;9.116;2022-12-29T08:36:09;97395.91;;;14.97;53.06
13553;BME280;6847;48.830;9.116;2022-12-29T08:38:38;97376.50;;;14.99;52.96
13553;BME280;6847;48.830;9.116;2022-12-29T08:41:04;97356.94;;;14.88;53.04
13553;BME280;6847;48.830;9.116;2022-12-29T08:43:33;97381.00;;;15.03;53.03
13553;BME280;6847;48.830;9.116;2022-12-29T08:46:00;97337.00;;;14.79;53.50
13553;BME280;6847;48.830;9.116;2022-12-29T08:48:27;97374.63;;;15.16;52.91
13553;BME280;6847;48.830;9.116;2022-12-29T08:50:54;97353.75;;;15.03;52.61
13553;BME280;6847;48.830;9.116;2022-12-29T08:53:22;97377.50;;;15.29;52.79
13553;BME280;6847;48.830;9.116;2022-12-29T08:55:55;97393.75;;;15.60;52.19
13553;BME280;6847;48.830;9.116;2022-12-29T08:58:22;97397.13;;;15.65;52.17
13553;BME280;6847;48.830;9.116;2022-12-29T09:00:52;97392.78;;;15.73;51.77
13553;BME280;6847;48.830;9.116;2022-12-29T09:03:19;97395.16;;;15.91;51.45
13553;BME280;6847;48.830;9.116;2022-12-29T09:05:48;97396.19;;;16.34;51.36
13553;BME280;6847;48.830;9.116;2022-12-29T09:08:15;97403.09;;;17.07;49.82
13553;BME280;6847;48.830;9.116;2022-12-29T09:10:42;97407.53;;;17.20;50.24
13553;BME280;6847;48.830;9.116;2022-12-29T09:13:12;97408.69;;;16.90;50.84
13553;BME280;6847;48.830;9.116;2022-12-29T09:15:39;97407.53;;;16.61;51.49
13553;BME280;6847;48.830;9.116;2022-12-29T09:18:08;97412.22;;;16.44;51.63
13553;BME280;6847;48.830;9.116;2022-12-29T09:20:36;97401.19;;;16.23;51.88
13553;BME280;6847;48.830;9.116;2022-12-29T09:23:04;97413.56;;;16.20;51.94
13553;BME280;6847;48.830;9.116;2022-12-29T09:25:33;97418.84;;;16.34;52.05
13553;BME280;6847;48.830;9.116;2022-12-29T09:27:59;97429.75;;;16.43;52.25
13553;BME280;6847;48.830;9.116;2022-12-29T09:30:29;97423.28;;;16.47;51.75
13553;BME280;6847;48.830;9.116;2022-12-29T09:32:56;97432.44;;;16.51;51.82
13553;BME280;6847;48.830;9.116;2022-12-29T09:35:24;97439.34;;;16.57;51.85
13553;BME280;6847;48.830;9.116;2022-12-29T09:37:55;97391.81;;;16.41;51.50
13553;BME280;6847;48.830;9.116;2022-12-29T09:40:26;97435.47;;;16.67;51.82
13553;BME280;6847;48.830;9.116;2022-12-29T09:43:16;97432.91;;;16.71;51.43
13553;BME280;6847;48.830;9.116;2022-12-29T09:45:51;97424.50;;;16.76;51.56
13553;BME280;6847;48.830;9.116;2022-12-29T09:48:23;97433.44;;;16.93;51.33
13553;BME280;6847;48.830;9.116;2022-12-29T09:50:57;97429.19;;;17.05;51.47
13553;BME280;6847;48.830;9.116;2022-12-29T09:53:27;97432.50;;;17.19;51.29
13553;BME280;6847;48.830;9.116;2022-12-29T09:55:59;97434.59;;;17.43;51.00
13553;BME280;6847;48.830;9.116;2022-12-29T09:58:32;97437.59;;;17.50;50.49
13553;BME280;6847;48.830;9.116;2022-12-29T10:01:05;97430.25;;;17.42;50.93
13553;BME280;6847;48.830;9.116;2022-12-29T10:03:41;97439.59;;;17.41;50.76
13553;BME280;6847;48.830;9.116;2022-12-29T10:06:16;97439.28;;;17.33;51.07
13553;BME280;6847;48.830;9.116;2022-12-29T10:08:52;97427.16;;;17.22;51.39
13553;BME280;6847;48.830;9.116;2022-12-29T10:11:31;97428.78;;;17.15;51.36
13553;BME280;6847;48.830;9.116;2022-12-29T10:14:17;97404.53;;;16.84;51.33
13553;BME280;6847;48.830;9.116;2022-12-29T10:16:53;97437.25;;;17.01;51.29
13553;BME280;6847;48.830;9.116;2022-12-29T10:19:38;97439.50;;;16.99;51.50
13553;BME280;6847;48.830;9.116;2022-12-29T10:22:19;97432.44;;;16.98;51.33
13553;BME280;6847;48.830;9.116;2022-12-29T10:24:55;97432.16;;;16.91;51.20
13553;BME280;6847;48.830;9.116;2022-12-29T10:27:22;97390.81;;;16.54;51.63
13553;BME280;6847;48.830;9.116;2022-12-29T10:29:55;97423.84;;;16.79;51.67
13553;BME280;6847;48.830;9.116;2022-12-29T10:32:30;97439.38;;;16.95;51.30
13553;BME280;6847;48.830;9.116;2022-12-29T10:35:00;97433.94;;;17.16;50.93
13553;BME280;6847;48.830;9.116;2022-12-29T10:37:35;97444.13;;;17.36;50.93
13553;BME280;6847;48.830;9.116;2022-12-29T10:40:15;97435.78;;;17.62;50.33
13553;BME280;6847;48.830;9.116;2022-12-29T10:42:51;97435.69;;;17.92;50.49
13553;BME280;6847;48.830;9.116;2022-12-29T10:45:18;97444.78;;;18.17;49.93
13553;BME280;6847;48.830;9.116;2022-12-29T10:47:55;97439.16;;;18.13;50.08
13553;BME280;6847;48.830;9.116;2022-12-29T10:50:26;97447.72;;;18.77;49.59
13553;BME280;6847;48.830;9.116;2022-12-29T10:53:02;97423.16;;;19.17;49.17
13553;BME280;6847;48.830;9.116;2022-12-29T10:55:33;97436.75;;;19.26;49.04
13553;BME280;6847;48.830;9.116;2022-12-29T10:58:04;97438.81;;;19.05;49.37
13553;BME280;6847;48.830;9.116;2022-12-29T11:00:33;97421.63;;;18.71;49.96
13553;BME280;6847;48.830;9.116;2022-12-29T11:03:11;97435.59;;;18.66;50.06
13553;BME280;6847;48.830;9.116;2022-12-29T11:05:48;97443.28;;;18.52;50.18
13553;BME280;6847;48.830;9.116;2022-12-29T11:08:25;97441.19;;;18.37;50.65
13553;BME280;6847;48.830;9.116;2022-12-29T11:10:59;97450.66;;;18.27;50.94
13553;BME280;6847;48.830;9.116;2022-12-29T11:13:28;97397.75;;;17.82;50.65
13553;BME280;6847;48.830;9.116;2022-12-29T11:15:57;97450.94;;;18.13;50.74
13553;BME280;6847;48.830;9.116;2022-12-29T11:18:26;97452.28;;;18.07;50.89
13553;BME280;6847;48.830;9.116;2022-12-29T11:20:57;97445.44;;;18.01;50.63
13553;BME280;6847;48.830;9.116;2022-12-29T11:23:33;97451.09;;;17.96;50.60
13553;BME280;6847;48.830;9.116;2022-12-29T11:26:13;97449.72;;;17.90;50.44
13553;BME280;6847;48.830;9.116;2022-12-29T11:28:42;97450.59;;;17.82;50.54
13553;BME280;6847;48.830;9.116;2022-12-29T11:31:17;97432.97;;;17.71;50.53
13553;BME280;6847;48.830;9.116;2022-12-29T11:33:45;97450.06;;;17.68;50.84
13553;BME280;6847;48.830;9.116;2022-12-29T11:36:20;97416.25;;;17.43;51.01
13553;BME280;6847;48.830;9.116;2022-12-29T11:38:59;96918.56;;;14.14;50.69
13553;BME280;6847;48.830;9.116;2022-12-29T11:41:28;97453.06;;;17.46;50.63
13553;BME280;6847;48.830;9.116;2022-12-29T11:44:00;97442.50;;;17.35;50.60
13553;BME280;6847;48.830;9.116;2022-12-29T11:47:26;97453.03;;;17.25;50.75
13553;BME280;6847;48.830;9.116;2022-12-29T11:49:56;97465.88;;;17.04;50.67
13553;BME280;6847;48.830;9.116;2022-12-29T11:52:34;97291.72;;;15.99;50.52
13553;BME280;6847;48.830;9.116;2022-12-29T11:55:05;97434.41;;;16.89;50.52
13553;BME280;6847;48.830;9.116;2022-12-29T11:57:34;97459.88;;;16.81;51.00
13553;BME280;6847;48.830;9.116;2022-12-29T12:00:15;97460.22;;;16.71;51.12
13553;BME280;6847;48.830;9.116;2022-12-29T12:03:13;97426.56;;;16.32;50.87
13553;BME280;6847;48.830;9.116;2022-12-29T12:05:47;97453.06;;;16.40;51.29
13553;BME280;6847;48.830;9.116;2022-12-29T12:08:21;97452.91;;;16.28;51.50
13553;BME280;6847;48.830;9.116;2022-12-29T12:10:59;97429.34;;;16.15;51.84
13553;BME280;6847;48.830;9.116;2022-12-29T12:13:31;97311.41;;;15.23;51.79
13553;BME280;6847;48.830;9.116;2022-12-29T12:16:04;97453.91;;;16.06;51.80
13553;BME280;6847;48.830;9.116;2022-12-29T12:18:39;97437.53;;;16.06;51.60
13553;BME280;6847;48.830;9.116;2022-12-29T12:21:12;97407.22;;;15.90;51.58
13553;BME280;6847;48.830;9.116;2022-12-29T12:23:46;97435.25;;;16.17;51.50
13553;BME280;6847;48.830;9.116;2022-12-29T12:26:16;97443.31;;;16.22;51.69
13553;BME280;6847;48.830;9.116;2022-12-29T12:28:53;97447.28;;;16.33;51.78
13553;BME280;6847;48.830;9.116;2022-12-29T12:31:44;97442.56;;;16.51;51.46
13553;BME280;6847;48.830;9.116;2022-12-29T12:34:16;97417.47;;;16.57;51.07
13553;BME280;6847;48.830;9.116;2022-12-29T12:37:06;97430.72;;;16.85;51.25
13553;BME280;6847;48.830;9.116;2022-12-29T12:39:47;97312.47;;;16.29;51.35
13553;BME280;6847;48.830;9.116;2022-12-29T12:42:31;97424.94;;;17.16;50.93
13553;BME280;6847;48.830;9.116;2022-12-29T12:45:10;97419.88;;;17.26;50.99
13553;BME280;6847;48.830;9.116;2022-12-29T12:47:53;97400.31;;;17.16;50.86
13553;BME280;6847;48.830;9.116;2022-12-29T12:50:38;97416.50;;;17.29;51.43
13553;BME280;6847;48.830;9.116;2022-12-29T12:53:27;97427.22;;;17.34;51.12
13553;BME280;6847;48.830;9.116;2022-12-29T12:56:07;97354.66;;;16.87;51.05
13553;BME280;6847;48.830;9.116;2022-12-29T12:58:43;97416.50;;;17.29;51.39
13553;BME280;6847;48.830;9.116;2022-12-29T13:01:26;97404.88;;;17.32;51.41
13553;BME280;6847;48.830;9.116;2022-12-29T13:04:12;97351.47;;;17.26;51.24
13553;BME280;6847;48.830;9.116;2022-12-29T13:06:51;97409.06;;;17.80;51.16
13553;BME280;6847;48.830;9.116;2022-12-29T13:09:28;97408.56;;;17.78;51.34
13553;BME280;6847;48.830;9.116;2022-12-29T13:12:10;97401.47;;;17.56;51.62
13553;BME280;6847;48.830;9.116;2022-12-29T13:14:57;97397.41;;;17.42;51.80
13553;BME280;6847;48.830;9.116;2022-12-29T13:17:34;97253.22;;;16.50;51.41
13553;BME280;6847;48.830;9.116;2022-12-29T13:20:15;97367.38;;;17.12;51.42
13553;BME280;6847;48.830;9.116;2022-12-29T13:22:54;97394.78;;;17.24;51.61
13553;BME280;6847;48.830;9.116;2022-12-29T13:25:37;97390.84;;;17.13;52.11
13553;BME280;6847;48.830;9.116;2022-12-29T13:28:10;97355.88;;;16.69;52.22
13553;BME280;6847;48.830;9.116;2022-12-29T13:30:49;97350.94;;;16.53;52.43
13553;BME280;6847;48.830;9.116;2022-12-29T13:33:24;97386.91;;;16.73;51.87
13553;BME280;6847;48.830;9.116;2022-12-29T13:35:59;97391.13;;;16.61;52.32
13553;BME280;6847;48.830;9.116;2022-12-29T13:38:31;97364.22;;;16.34;52.22